Terminal Aerodrome Forecast
Issued by NWS Twin Cities, MN

Home | Current Version | Previous Version | Text Only | Print | Product List | Glossary Off
Versions: 1 2 3 4 5 6 7 8 9 10 11 12 13 14 15 16 17 18 19 20 21 22

463
FTUS43 KMPX 221120
TAFEAU
TAF
KEAU 221120Z 2212/2312 16005KT P6SM BKN007
      TEMPO 2214/2218 SCT010
     FM221800 24005KT P6SM SCT020 OVC035
     FM222100 31010KT P6SM SCT110=

USA.gov is the U.S. government's official web portal to all federal, state and local government web resources and services.